createdAt,value
2019-05-20T00:00:41.872Z,5.87
2019-05-20T00:03:10.737Z,6.45
2019-05-20T00:05:39.724Z,5.75
2019-05-20T00:08:08.651Z,6.30
2019-05-20T00:10:37.512Z,6.58
2019-05-20T00:13:06.351Z,6.05
2019-05-20T00:15:35.523Z,6.15
2019-05-20T00:18:04.372Z,6.30
2019-05-20T00:20:33.243Z,6.35
2019-05-20T00:23:02.095Z,6.25
2019-05-20T00:25:30.958Z,6.42
2019-05-20T00:27:59.880Z,6.00
2019-05-20T00:30:28.994Z,6.10
2019-05-20T00:32:58.187Z,6.80
2019-05-20T00:35:27.047Z,5.87
2019-05-20T00:37:55.898Z,6.28
2019-05-20T00:40:24.764Z,5.90
2019-05-20T00:42:53.619Z,6.45
2019-05-20T00:45:22.473Z,6.60
2019-05-20T00:47:51.416Z,5.45
2019-05-20T00:50:20.264Z,6.00
2019-05-20T00:52:49.110Z,6.10
2019-05-20T00:55:25.019Z,6.20
2019-05-20T00:57:54.203Z,5.92
2019-05-20T01:00:23.119Z,5.80
2019-05-20T01:02:56.940Z,5.78
2019-05-20T01:05:22.535Z,6.12
2019-05-20T01:07:51.395Z,6.22
2019-05-20T01:10:20.309Z,6.33
2019-05-20T01:12:49.171Z,6.08
2019-05-20T01:15:19.291Z,6.10
2019-05-20T01:17:48.135Z,6.22
2019-05-20T01:20:18.067Z,6.47
2019-05-20T01:22:46.915Z,6.37
2019-05-20T01:25:15.783Z,6.22
2019-05-20T01:27:44.635Z,6.33
2019-05-20T01:30:13.861Z,6.28
2019-05-20T01:32:42.711Z,6.20
2019-05-20T01:35:12.116Z,6.22
2019-05-20T01:37:40.975Z,6.53
2019-05-20T01:40:09.899Z,6.55
2019-05-20T01:42:38.784Z,7.05
2019-05-20T01:45:08.212Z,7.03
2019-05-20T01:47:37.064Z,6.72
2019-05-20T01:50:06.296Z,7.35
2019-05-20T01:52:35.148Z,7.62
2019-05-20T01:55:06.745Z,7.45
2019-05-20T01:57:35.608Z,7.47
2019-05-20T02:00:05.795Z,7.35
2019-05-20T02:02:35.996Z,7.75
2019-05-20T02:05:05.952Z,7.60
2019-05-20T02:07:35.872Z,7.47
2019-05-20T02:10:06.316Z,8.10
2019-05-20T02:12:35.159Z,8.08
2019-05-20T02:15:23.625Z,9.65
2019-05-20T02:17:52.797Z,10.03
2019-05-20T02:20:21.659Z,10.25
2019-05-20T02:22:50.891Z,10.38
2019-05-20T02:25:19.831Z,10.55
2019-05-20T02:27:48.694Z,9.65
2019-05-20T02:30:17.880Z,10.88
2019-05-20T02:32:46.737Z,11.00
2019-05-20T02:35:15.679Z,11.60
2019-05-20T02:37:44.973Z,12.88
2019-05-20T02:40:14.011Z,13.90
2019-05-20T02:42:42.932Z,14.98
2019-05-20T02:45:11.862Z,16.77
2019-05-20T02:47:40.738Z,18.05
2019-05-20T02:50:09.767Z,18.45
2019-05-20T02:52:38.626Z,18.80
2019-05-20T02:55:07.773Z,17.57
2019-05-20T02:57:36.639Z,20.37
2019-05-20T03:00:07.271Z,20.45
2019-05-20T03:02:36.259Z,20.77
2019-05-20T03:05:06.080Z,22.40
2019-05-20T03:07:35.299Z,21.87
2019-05-20T03:10:06.224Z,22.45
2019-05-20T03:12:36.074Z,20.97
2019-05-20T03:15:05.692Z,21.50
2019-05-20T03:17:34.555Z,22.90
2019-05-20T03:20:04.516Z,23.67
2019-05-20T03:22:33.372Z,24.12
2019-05-20T03:25:03.964Z,25.75
2019-05-20T03:27:32.812Z,27.25
2019-05-20T03:30:01.688Z,28.05
2019-05-20T03:32:32.033Z,28.42
2019-05-20T03:35:01.567Z,27.95
2019-05-20T03:37:32.101Z,27.17
2019-05-20T03:40:00.962Z,28.00
2019-05-20T03:42:29.895Z,27.10
2019-05-20T03:44:59.034Z,29.42
2019-05-20T03:47:27.908Z,30.27
2019-05-20T03:49:56.777Z,30.48
2019-05-20T03:52:25.716Z,29.98
2019-05-20T03:54:54.582Z,32.15
2019-05-20T03:57:23.441Z,29.57
2019-05-20T03:59:52.307Z,32.98
2019-05-20T04:02:21.211Z,31.55
2019-05-20T04:05:01.365Z,34.45
2019-05-20T04:07:20.948Z,37.78
2019-05-20T04:09:49.820Z,38.05
2019-05-20T04:12:18.701Z,37.93
2019-05-20T04:14:47.628Z,37.17
2019-05-20T04:17:16.503Z,35.63
2019-05-20T04:19:45.360Z,38.28
2019-05-20T04:22:14.254Z,36.38
2019-05-20T04:24:43.192Z,33.98
2019-05-20T04:27:12.386Z,33.40
2019-05-20T04:29:42.319Z,35.23
2019-05-20T04:32:11.187Z,33.15
2019-05-20T04:34:40.301Z,35.17
2019-05-20T04:37:09.177Z,36.93
2019-05-20T04:39:38.035Z,38.48
2019-05-20T04:42:07.306Z,38.23
2019-05-20T04:44:36.257Z,40.78
2019-05-20T04:47:05.125Z,38.35
2019-05-20T04:49:33.975Z,36.98
2019-05-20T04:52:03.176Z,37.42
2019-05-20T04:54:32.050Z,35.58
2019-05-20T04:57:00.910Z,38.83
2019-05-20T04:59:29.780Z,37.75
2019-05-20T05:01:58.644Z,37.23
2019-05-20T05:04:27.499Z,37.73
2019-05-20T05:06:56.373Z,38.10
2019-05-20T05:09:25.385Z,37.88
2019-05-20T05:11:54.256Z,36.15
2019-05-20T05:14:23.137Z,39.48
2019-05-20T05:16:51.995Z,37.95
2019-05-20T05:19:23.828Z,38.40
2019-05-20T05:21:53.247Z,38.70
2019-05-20T05:24:22.108Z,39.05
2019-05-20T05:26:52.007Z,38.40
2019-05-20T05:29:20.867Z,38.95
2019-05-20T05:31:49.735Z,40.95
2019-05-20T05:34:18.599Z,40.38
2019-05-20T05:36:47.463Z,40.52
2019-05-20T05:39:16.320Z,39.00
2019-05-20T05:41:45.187Z,38.48
2019-05-20T05:44:14.051Z,39.03
2019-05-20T05:46:42.903Z,38.17
2019-05-20T05:49:11.795Z,37.58
2019-05-20T05:51:40.653Z,38.55
2019-05-20T05:54:09.515Z,38.30
2019-05-20T05:56:38.620Z,38.23
2019-05-20T05:59:07.553Z,38.05
2019-05-20T06:01:36.424Z,38.53
2019-05-20T06:04:05.612Z,36.30
2019-05-20T06:06:34.470Z,36.75
2019-05-20T06:09:04.701Z,37.33
2019-05-20T06:11:33.561Z,37.85
2019-05-20T06:14:02.424Z,36.75
2019-05-20T06:16:36.362Z,38.63
2019-05-20T06:19:01.862Z,37.65
2019-05-20T06:21:30.728Z,36.88
2019-05-20T06:23:59.607Z,37.20
2019-05-20T06:26:28.527Z,37.85
2019-05-20T06:28:57.383Z,39.60
2019-05-20T06:31:26.247Z,41.58
2019-05-20T06:33:55.116Z,41.88
2019-05-20T06:36:27.137Z,45.65
2019-05-20T06:39:13.312Z,40.60
2019-05-20T06:41:42.524Z,42.08
2019-05-20T06:44:11.659Z,43.68
2019-05-20T06:46:40.864Z,43.45
2019-05-20T06:49:10.068Z,44.58
2019-05-20T06:51:39.004Z,46.85
2019-05-20T06:54:07.869Z,44.88
2019-05-20T06:56:37.903Z,46.48
2019-05-20T06:59:06.768Z,46.58
2019-05-20T07:01:35.869Z,46.60
2019-05-20T07:04:04.801Z,46.92
2019-05-20T07:06:45.487Z,47.20
2019-05-20T07:09:05.401Z,47.73
2019-05-20T07:11:34.235Z,48.60
2019-05-20T07:14:03.276Z,49.48
2019-05-20T07:16:32.140Z,47.35
2019-05-20T07:19:01.300Z,46.60
2019-05-20T07:21:30.228Z,47.30
2019-05-20T07:23:59.115Z,46.65
2019-05-20T07:26:28.041Z,45.73
2019-05-20T07:28:56.971Z,46.48
2019-05-20T07:31:25.843Z,44.53
2019-05-20T07:33:54.768Z,44.80
2019-05-20T07:36:23.636Z,45.92
2019-05-20T07:38:52.487Z,45.40
2019-05-20T07:41:21.366Z,44.30
2019-05-20T07:43:51.202Z,43.30
2019-05-20T07:46:20.134Z,41.90
2019-05-20T07:48:49.481Z,42.80
2019-05-20T07:51:19.804Z,43.63
2019-05-20T07:53:48.773Z,41.58
2019-05-20T07:56:19.164Z,43.28
2019-05-20T07:58:50.057Z,42.30
2019-05-20T08:01:18.912Z,42.60
2019-05-20T08:03:47.776Z,39.42
2019-05-20T08:06:17.020Z,39.20
2019-05-20T08:08:45.899Z,37.73
2019-05-20T08:11:14.757Z,36.08
2019-05-20T08:13:43.629Z,36.55
2019-05-20T08:16:12.485Z,35.55
2019-05-20T08:18:41.407Z,35.60
2019-05-20T08:21:10.272Z,34.35
2019-05-20T08:23:39.417Z,32.23
2019-05-20T08:26:08.271Z,32.33
2019-05-20T08:28:37.129Z,31.75
2019-05-20T08:31:06.410Z,28.73
2019-05-20T08:33:35.468Z,28.32
2019-05-20T08:36:04.405Z,27.77
2019-05-20T08:38:33.264Z,27.50
2019-05-20T08:41:02.128Z,27.25
2019-05-20T08:43:30.999Z,26.93
2019-05-20T08:45:59.866Z,26.27
2019-05-20T08:48:28.828Z,25.80
2019-05-20T08:50:57.875Z,24.57
2019-05-20T08:53:26.749Z,23.87
2019-05-20T08:55:55.625Z,23.92
2019-05-20T08:58:24.463Z,24.27
2019-05-20T09:00:53.341Z,22.80
2019-05-20T09:03:22.193Z,22.10
2019-05-20T09:05:51.187Z,21.82
2019-05-20T09:08:20.052Z,21.50
2019-05-20T09:10:48.911Z,20.02
2019-05-20T09:13:18.125Z,19.37
2019-05-20T09:15:46.976Z,19.35
2019-05-20T09:18:15.923Z,20.12
2019-05-20T09:20:45.117Z,17.70
2019-05-20T09:23:13.980Z,16.82
2019-05-20T09:25:42.899Z,17.85
2019-05-20T09:28:11.843Z,16.35
2019-05-20T09:30:40.843Z,16.95
2019-05-20T09:33:10.112Z,16.95
2019-05-20T09:35:39.043Z,14.63
2019-05-20T09:38:19.398Z,14.13
2019-05-20T09:40:45.794Z,13.40
2019-05-20T09:43:14.648Z,12.90
2019-05-20T09:45:43.550Z,12.82
2019-05-20T09:48:12.522Z,12.80
2019-05-20T09:50:41.389Z,13.68
2019-05-20T09:53:11.207Z,12.30
2019-05-20T09:55:40.479Z,12.45
2019-05-20T09:58:09.320Z,14.25
2019-05-20T10:00:38.183Z,13.88
2019-05-20T10:03:07.753Z,13.62
2019-05-20T10:05:37.581Z,13.43
2019-05-20T10:08:06.932Z,14.85
2019-05-20T10:10:35.956Z,14.80
2019-05-20T10:13:07.274Z,14.38
2019-05-20T10:15:36.755Z,14.78
2019-05-20T10:18:05.623Z,15.15
2019-05-20T10:20:34.475Z,15.13
2019-05-20T10:23:03.364Z,15.32
2019-05-20T10:25:32.275Z,16.23
2019-05-20T10:28:01.146Z,17.30
2019-05-20T10:30:29.995Z,17.50
2019-05-20T10:32:58.861Z,17.98
2019-05-20T10:35:27.712Z,18.17
2019-05-20T10:37:56.899Z,18.75
2019-05-20T10:40:25.755Z,17.07
2019-05-20T10:42:54.615Z,18.62
2019-05-20T10:45:23.490Z,19.05
2019-05-20T10:47:52.347Z,17.17
2019-05-20T10:50:21.289Z,17.67
2019-05-20T10:52:50.144Z,17.37
2019-05-20T10:55:19.768Z,17.80
2019-05-20T10:57:48.627Z,19.10
2019-05-20T11:00:19.185Z,17.92
2019-05-20T11:02:48.025Z,20.30
2019-05-20T11:05:17.523Z,20.68
2019-05-20T11:07:46.423Z,20.10
2019-05-20T11:10:16.235Z,19.82
2019-05-20T11:12:45.079Z,21.02
2019-05-20T11:15:14.014Z,22.05
2019-05-20T11:17:43.195Z,21.62
2019-05-20T11:20:12.127Z,23.35
2019-05-20T11:22:41.299Z,22.82
2019-05-20T11:25:10.491Z,24.67
2019-05-20T11:27:39.351Z,24.10
2019-05-20T11:30:09.008Z,24.82
2019-05-20T11:32:37.876Z,24.18
2019-05-20T11:35:07.306Z,23.95
2019-05-20T11:37:39.475Z,24.98
2019-05-20T11:40:09.373Z,25.72
2019-05-20T11:42:40.126Z,27.40
2019-05-20T11:45:09.394Z,29.20
2019-05-20T11:47:38.246Z,30.20
2019-05-20T11:50:10.389Z,28.55
2019-05-20T11:52:39.285Z,29.85
2019-05-20T11:55:08.718Z,29.42
2019-05-20T11:57:37.559Z,31.30
2019-05-20T12:00:08.375Z,30.77
2019-05-20T12:02:44.583Z,30.05
2019-05-20T12:05:10.616Z,31.40
2019-05-20T12:07:39.736Z,31.87
2019-05-20T12:10:09.169Z,32.35
2019-05-20T12:12:39.024Z,31.40
2019-05-20T12:15:09.067Z,33.28
2019-05-20T12:17:38.004Z,34.00
2019-05-20T12:20:10.318Z,33.48
2019-05-20T12:22:38.987Z,33.80
2019-05-20T12:25:08.703Z,33.23
2019-05-20T12:27:37.941Z,36.35
2019-05-20T12:30:06.967Z,35.05
2019-05-20T12:32:35.911Z,33.38
2019-05-20T12:35:06.413Z,37.28
2019-05-20T12:37:36.242Z,39.27
2019-05-20T12:40:07.455Z,38.00
2019-05-20T12:42:36.103Z,36.85
2019-05-20T12:45:08.405Z,39.33
2019-05-20T12:47:46.365Z,37.10
2019-05-20T12:50:15.571Z,39.08
2019-05-20T12:52:44.508Z,37.98
2019-05-20T12:55:13.507Z,40.20
2019-05-20T12:57:42.976Z,41.15
2019-05-20T13:00:12.985Z,40.38
2019-05-20T13:02:41.919Z,39.15
2019-05-20T13:05:12.131Z,39.78
2019-05-20T13:07:41.022Z,39.85
2019-05-20T13:10:26.553Z,41.42
2019-05-20T13:12:41.137Z,41.00
2019-05-20T13:15:10.476Z,39.98
2019-05-20T13:17:44.247Z,43.98
2019-05-20T13:20:10.064Z,42.78
2019-05-20T13:22:38.939Z,43.55
2019-05-20T13:25:08.674Z,43.33
2019-05-20T13:27:37.787Z,44.05
2019-05-20T13:30:08.123Z,45.90
2019-05-20T13:32:37.013Z,45.80
2019-05-20T13:35:06.226Z,45.52
2019-05-20T13:37:35.106Z,46.50
2019-05-20T13:40:06.909Z,48.60
2019-05-20T13:42:36.384Z,46.63
2019-05-20T13:45:05.603Z,47.38
2019-05-20T13:47:34.467Z,45.60
2019-05-20T13:50:06.360Z,45.67
2019-05-20T13:52:35.276Z,48.05
2019-05-20T13:55:05.175Z,47.65
2019-05-20T13:57:34.043Z,48.40
2019-05-20T14:00:03.187Z,47.17
2019-05-20T14:02:32.445Z,46.98
2019-05-20T14:05:01.331Z,47.78
2019-05-20T14:07:30.243Z,47.50
2019-05-20T14:09:59.108Z,47.05
2019-05-20T14:12:27.968Z,47.23
2019-05-20T14:14:56.842Z,45.67
2019-05-20T14:17:26.017Z,47.25
2019-05-20T14:19:54.923Z,46.98
2019-05-20T14:22:23.811Z,45.98
2019-05-20T14:24:52.681Z,48.00
2019-05-20T14:27:21.541Z,47.83
2019-05-20T14:29:50.407Z,47.10
2019-05-20T14:32:19.279Z,47.78
2019-05-20T14:34:48.138Z,47.27
2019-05-20T14:37:17.004Z,49.05
2019-05-20T14:39:46.059Z,47.88
2019-05-20T14:42:16.225Z,48.33
2019-05-20T14:44:45.075Z,48.08
2019-05-20T14:47:14.349Z,50.35
2019-05-20T14:49:43.261Z,49.55
2019-05-20T14:52:12.179Z,49.85
2019-05-20T14:54:41.047Z,50.17
2019-05-20T14:57:09.907Z,50.50
2019-05-20T14:59:38.776Z,51.30
2019-05-20T15:02:08.928Z,50.85
2019-05-20T15:04:37.786Z,50.45
2019-05-20T15:07:06.643Z,52.13
2019-05-20T15:09:35.584Z,53.87
2019-05-20T15:12:04.472Z,54.58
2019-05-20T15:14:33.337Z,50.65
2019-05-20T15:17:02.204Z,52.80
2019-05-20T15:19:31.067Z,52.43
2019-05-20T15:21:59.931Z,52.33
2019-05-20T15:24:29.033Z,51.55
2019-05-20T15:26:57.999Z,51.83
2019-05-20T15:29:28.567Z,53.23
2019-05-20T15:31:57.643Z,53.10
2019-05-20T15:34:26.740Z,52.38
2019-05-20T15:36:55.596Z,53.35
2019-05-20T15:39:24.508Z,52.45
2019-05-20T15:41:53.422Z,52.78
2019-05-20T15:44:22.283Z,54.63
2019-05-20T15:46:51.143Z,53.60
2019-05-20T15:49:20.019Z,53.70
2019-05-20T15:51:48.882Z,54.20
2019-05-20T15:54:17.750Z,54.45
2019-05-20T15:56:46.624Z,54.33
2019-05-20T15:59:15.491Z,53.42
2019-05-20T16:01:44.358Z,54.93
2019-05-20T16:04:15.375Z,54.90
2019-05-20T16:06:44.224Z,53.87
2019-05-20T16:09:17.017Z,54.45
2019-05-20T16:11:43.663Z,55.38
2019-05-20T16:14:12.535Z,54.48
2019-05-20T16:16:41.644Z,55.58
2019-05-20T16:19:10.508Z,53.65
2019-05-20T16:21:39.635Z,54.48
2019-05-20T16:24:08.491Z,53.85
2019-05-20T16:26:37.375Z,55.50
2019-05-20T16:29:06.301Z,53.70
2019-05-20T16:31:35.163Z,55.12
2019-05-20T16:34:04.097Z,56.08
2019-05-20T16:36:32.996Z,57.65
2019-05-20T16:39:01.848Z,53.52
2019-05-20T16:41:32.484Z,54.15
2019-05-20T16:44:01.387Z,55.98
2019-05-20T16:46:30.264Z,54.83
2019-05-20T16:48:59.217Z,54.30
2019-05-20T16:51:28.079Z,54.03
2019-05-20T16:53:57.213Z,55.12
2019-05-20T16:56:26.165Z,53.23
2019-05-20T16:58:56.076Z,53.52
2019-05-20T17:01:24.940Z,52.67
2019-05-20T17:03:53.799Z,52.80
2019-05-20T17:06:22.664Z,51.00
2019-05-20T17:08:51.527Z,50.83
2019-05-20T17:11:20.696Z,50.03
2019-05-20T17:13:49.560Z,49.95
2019-05-20T17:16:21.298Z,51.40
2019-05-20T17:18:51.232Z,49.18
2019-05-20T17:21:20.159Z,47.55
2019-05-20T17:23:49.099Z,48.23
2019-05-20T17:26:17.979Z,49.03
2019-05-20T17:28:46.844Z,48.42
2019-05-20T17:31:15.699Z,48.30
2019-05-20T17:33:44.940Z,47.62
2019-05-20T17:36:14.035Z,48.80
2019-05-20T17:38:42.903Z,46.88
2019-05-20T17:41:11.795Z,47.10
2019-05-20T17:43:40.655Z,47.05
2019-05-20T17:46:09.526Z,47.08
2019-05-20T17:48:38.625Z,48.05
2019-05-20T17:51:08.987Z,49.27
2019-05-20T17:53:37.857Z,49.67
2019-05-20T17:56:06.903Z,49.45
2019-05-20T17:58:37.385Z,49.27
2019-05-20T18:01:15.437Z,49.05
2019-05-20T18:03:37.075Z,49.88
2019-05-20T18:06:05.939Z,49.98
2019-05-20T18:08:36.444Z,50.70
2019-05-20T18:11:05.327Z,51.10
2019-05-20T18:13:34.163Z,51.58
2019-05-20T18:16:03.087Z,51.20
2019-05-20T18:18:31.951Z,51.37
2019-05-20T18:21:00.878Z,51.42
2019-05-20T18:23:29.738Z,50.83
2019-05-20T18:25:58.619Z,54.18
2019-05-20T18:28:27.468Z,55.35
2019-05-20T18:30:56.337Z,54.75
2019-05-20T18:33:25.202Z,53.10
2019-05-20T18:35:54.071Z,54.23
2019-05-20T18:38:22.936Z,54.35
2019-05-20T18:40:51.799Z,55.05
2019-05-20T18:43:20.652Z,55.28
2019-05-20T18:45:49.575Z,57.17
2019-05-20T18:48:19.398Z,57.90
2019-05-20T18:50:48.255Z,56.55
2019-05-20T18:53:18.419Z,56.55
2019-05-20T18:55:47.330Z,57.25
2019-05-20T18:58:16.337Z,57.13
2019-05-20T19:00:45.192Z,58.80
2019-05-20T19:03:14.062Z,58.25
2019-05-20T19:05:42.982Z,59.00
2019-05-20T19:08:11.918Z,58.30
2019-05-20T19:10:41.156Z,58.70
2019-05-20T19:13:10.062Z,58.80
2019-05-20T19:15:38.944Z,59.25
2019-05-20T19:18:07.877Z,59.05
2019-05-20T19:20:36.819Z,61.15
2019-05-20T19:23:05.679Z,60.92
2019-05-20T19:25:37.625Z,59.58
2019-05-20T19:28:05.171Z,59.38
2019-05-20T19:30:34.048Z,60.40
2019-05-20T19:33:02.978Z,62.85
2019-05-20T19:35:32.911Z,61.63
2019-05-20T19:38:01.843Z,62.27
2019-05-20T19:40:30.875Z,63.10
2019-05-20T19:43:00.076Z,65.12
2019-05-20T19:45:28.943Z,63.98
2019-05-20T19:47:57.798Z,66.70
2019-05-20T19:50:26.666Z,65.62
2019-05-20T19:52:55.589Z,66.50
2019-05-20T19:55:24.510Z,67.47
2019-05-20T19:57:53.454Z,66.82
2019-05-20T20:00:22.336Z,66.97
2019-05-20T20:02:51.493Z,67.10
2019-05-20T20:05:20.355Z,67.15
2019-05-20T20:07:49.216Z,63.68
2019-05-20T20:10:18.157Z,64.50
2019-05-20T20:12:47.280Z,65.00
2019-05-20T20:15:17.091Z,68.20
2019-05-20T20:17:46.027Z,64.62
2019-05-20T20:20:14.955Z,62.48
2019-05-20T20:22:43.824Z,64.75
2019-05-20T20:25:12.683Z,64.12
2019-05-20T20:27:41.548Z,64.37
2019-05-20T20:30:11.394Z,63.63
2019-05-20T20:32:40.367Z,65.55
2019-05-20T20:35:11.235Z,65.62
2019-05-20T20:37:40.177Z,66.02
2019-05-20T20:40:09.147Z,65.78
2019-05-20T20:42:38.004Z,65.08
2019-05-20T20:45:07.102Z,64.58
2019-05-20T20:47:41.929Z,65.78
2019-05-20T20:50:08.331Z,63.58
2019-05-20T20:52:37.187Z,58.05
2019-05-20T20:55:06.768Z,56.63
2019-05-20T20:57:35.995Z,60.03
2019-05-20T21:00:06.508Z,62.45
2019-05-20T21:02:50.670Z,63.60
2019-05-20T21:05:08.136Z,67.25
2019-05-20T21:07:37.718Z,65.45
2019-05-20T21:10:06.851Z,68.10
2019-05-20T21:12:35.719Z,67.37
2019-05-20T21:15:05.359Z,63.23
2019-05-20T21:17:34.227Z,62.80
2019-05-20T21:20:04.055Z,63.48
2019-05-20T21:22:32.999Z,66.40
2019-05-20T21:25:01.863Z,69.30
2019-05-20T21:27:30.804Z,67.53
2019-05-20T21:29:59.663Z,69.05
2019-05-20T21:32:28.528Z,67.00
2019-05-20T21:34:57.395Z,67.95
2019-05-20T21:37:26.259Z,73.85
2019-05-20T21:39:55.364Z,76.20
2019-05-20T21:42:24.223Z,75.87
2019-05-20T21:44:53.101Z,76.10
2019-05-20T21:47:21.963Z,79.12
2019-05-20T21:49:50.823Z,78.87
2019-05-20T21:52:19.695Z,79.00
2019-05-20T21:54:48.804Z,79.40
2019-05-20T21:57:17.663Z,81.40
2019-05-20T21:59:46.531Z,79.25
2019-05-20T22:02:16.358Z,81.35
2019-05-20T22:04:45.231Z,82.27
2019-05-20T22:07:14.163Z,81.12
2019-05-20T22:09:43.053Z,80.53
2019-05-20T22:12:12.138Z,80.12
2019-05-20T22:14:41.010Z,79.75
2019-05-20T22:17:10.939Z,79.62
2019-05-20T22:19:39.833Z,79.75
2019-05-20T22:22:12.981Z,78.20
2019-05-20T22:24:41.850Z,79.77
2019-05-20T22:27:10.707Z,76.37
2019-05-20T22:29:39.599Z,79.15
2019-05-20T22:32:08.460Z,77.12
2019-05-20T22:34:37.322Z,77.55
2019-05-20T22:37:06.184Z,77.78
2019-05-20T22:39:35.051Z,77.00
2019-05-20T22:42:03.916Z,79.82
2019-05-20T22:44:33.060Z,78.97
2019-05-20T22:47:01.927Z,78.33
2019-05-20T22:49:30.783Z,79.37
2019-05-20T22:51:59.656Z,79.30
2019-05-20T22:54:28.519Z,81.53
2019-05-20T22:56:57.392Z,82.97
2019-05-20T22:59:26.259Z,84.00
2019-05-20T23:01:55.156Z,81.67
2019-05-20T23:04:24.022Z,85.17
2019-05-20T23:06:52.880Z,82.45
2019-05-20T23:09:21.755Z,82.65
2019-05-20T23:11:50.613Z,82.80
2019-05-20T23:14:19.488Z,82.60
2019-05-20T23:16:48.343Z,82.45
2019-05-20T23:19:17.485Z,83.72
2019-05-20T23:21:46.343Z,83.85
2019-05-20T23:24:15.216Z,85.17
2019-05-20T23:26:44.130Z,83.05
2019-05-20T23:29:13.003Z,81.80
2019-05-20T23:31:42.155Z,82.60
2019-05-20T23:34:13.209Z,81.60
2019-05-20T23:36:41.888Z,79.12
2019-05-20T23:39:10.754Z,80.38
2019-05-20T23:41:39.615Z,72.30
2019-05-20T23:44:08.740Z,81.17
2019-05-20T23:46:37.600Z,79.22
2019-05-20T23:49:06.467Z,76.90
2019-05-20T23:51:35.671Z,75.65
2019-05-20T23:54:04.535Z,76.33
2019-05-20T23:56:33.407Z,77.00
2019-05-20T23:59:02.502Z,74.40
